createdAt,value
2019-04-14T00:00:38.372Z,98696.16
2019-04-14T00:03:12.982Z,98698.30
2019-04-14T00:05:47.266Z,98696.09
2019-04-14T00:08:22.129Z,98700.72
2019-04-14T00:10:57.276Z,98696.09
2019-04-14T00:13:31.194Z,98705.77
2019-04-14T00:16:05.338Z,98708.16
2019-04-14T00:18:40.395Z,98715.41
2019-04-14T00:21:15.072Z,98710.59
2019-04-14T00:23:50.212Z,98717.57
2019-04-14T00:26:37.831Z,98717.62
2019-04-14T00:29:15.198Z,98715.94
2019-04-14T00:31:52.185Z,98710.94
2019-04-14T00:34:28.798Z,98715.39
2019-04-14T00:37:03.425Z,98713.19
2019-04-14T00:39:38.325Z,98713.99
2019-04-14T00:42:12.667Z,98722.69
2019-04-14T00:44:47.362Z,98729.19
2019-04-14T00:47:22.242Z,98729.84
2019-04-14T00:49:57.179Z,98739.14
2019-04-14T00:52:31.874Z,98737.84
2019-04-14T00:55:07.452Z,98749.53
2019-04-14T00:57:41.974Z,98745.52
2019-04-14T01:00:18.792Z,98743.53
2019-04-14T01:02:53.615Z,98748.25
2019-04-14T01:05:28.655Z,98756.77
2019-04-14T01:08:07.355Z,98750.45
2019-04-14T01:10:43.315Z,98750.37
2019-04-14T01:13:18.104Z,98761.52
2019-04-14T01:16:00.513Z,98759.92
2019-04-14T01:18:29.828Z,98764.35
2019-04-14T01:21:07.064Z,98769.81
2019-04-14T01:23:43.522Z,98766.19
2019-04-14T01:26:20.282Z,98776.86
2019-04-14T01:28:55.456Z,98785.16
2019-04-14T01:31:29.884Z,98777.30
2019-04-14T01:34:04.788Z,98778.12
2019-04-14T01:36:43.099Z,98778.60
2019-04-14T01:39:19.655Z,98779.27
2019-04-14T01:41:56.539Z,98787.99
2019-04-14T01:44:31.441Z,98793.00
2019-04-14T01:47:09.444Z,98786.86
2019-04-14T01:49:44.370Z,98783.37
2019-04-14T01:52:18.849Z,98783.17
2019-04-14T01:54:53.774Z,98784.13
2019-04-14T01:57:28.503Z,98795.55
2019-04-14T02:00:03.264Z,98785.03
2019-04-14T02:02:37.870Z,98786.80
2019-04-14T02:05:14.564Z,98787.48
2019-04-14T02:07:49.422Z,98792.14
2019-04-14T02:10:23.860Z,98788.66
2019-04-14T02:12:58.474Z,98789.08
2019-04-14T02:15:33.062Z,98779.97
2019-04-14T02:18:07.827Z,98783.59
2019-04-14T02:20:44.597Z,98785.04
2019-04-14T02:23:19.234Z,98790.95
2019-04-14T02:25:53.936Z,98789.03
2019-04-14T02:28:30.929Z,98786.38
2019-04-14T02:31:17.674Z,98788.14
2019-04-14T02:34:07.780Z,98781.13
2019-04-14T02:39:26.796Z,98784.38
2019-04-14T02:42:17.423Z,98785.86
2019-04-14T02:47:26.843Z,98776.48
2019-04-14T02:49:51.164Z,98778.26
2019-04-14T02:55:05.262Z,98769.02
2019-04-14T02:57:47.581Z,98764.59
2019-04-14T03:00:24.209Z,98765.62
2019-04-14T03:03:05.901Z,98768.40
2019-04-14T03:05:37.599Z,98759.94
2019-04-14T03:08:11.237Z,98770.58
2019-04-14T03:13:27.125Z,98771.05
2019-04-14T03:15:55.106Z,98769.28
2019-04-14T03:18:44.850Z,98771.84
2019-04-14T03:21:15.553Z,98763.45
2019-04-14T03:26:21.235Z,98759.67
2019-04-14T03:28:51.555Z,98763.72
2019-04-14T03:31:51.914Z,98767.55
2019-04-14T03:39:29.202Z,98748.63
2019-04-14T03:41:56.588Z,98761.59
2019-04-14T03:52:29.829Z,98748.30
2019-04-14T03:54:52.694Z,98752.22
2019-04-14T03:57:06.301Z,98760.05
2019-04-14T03:59:41.304Z,98758.71
2019-04-14T04:02:18.247Z,98759.46
2019-04-14T04:04:56.066Z,98757.91
2019-04-14T04:07:32.190Z,98768.44
2019-04-14T04:10:09.237Z,98759.42
2019-04-14T04:12:46.439Z,98760.44
2019-04-14T04:15:21.331Z,98758.00
2019-04-14T04:17:55.870Z,98757.26
2019-04-14T04:20:30.640Z,98743.44
2019-04-14T04:23:05.602Z,98745.54
2019-04-14T04:25:39.989Z,98741.93
2019-04-14T04:28:16.713Z,98746.42
2019-04-14T04:30:53.640Z,98747.81
2019-04-14T04:33:28.939Z,98745.49
2019-04-14T04:36:03.307Z,98738.36
2019-04-14T04:38:37.735Z,98736.72
2019-04-14T04:41:12.422Z,98754.94
2019-04-14T04:43:47.323Z,98747.39
2019-04-14T04:46:22.035Z,98749.67
2019-04-14T04:49:04.502Z,98733.41
2019-04-14T04:51:31.359Z,98719.92
2019-04-14T04:54:05.888Z,98725.02
2019-04-14T04:56:40.537Z,98728.11
2019-04-14T04:59:14.899Z,98728.04
2019-04-14T05:01:51.488Z,98721.14
2019-04-14T05:04:30.900Z,98715.38
2019-04-14T05:07:07.854Z,98707.03
2019-04-14T05:09:42.727Z,98711.73
2019-04-14T05:12:17.424Z,98717.09
2019-04-14T05:14:55.130Z,98702.55
2019-04-14T05:17:29.890Z,98700.52
2019-04-14T05:20:03.670Z,98712.63
2019-04-14T05:22:39.802Z,98706.74
2019-04-14T05:25:14.651Z,98713.47
2019-04-14T05:27:51.512Z,98706.08
2019-04-14T05:30:26.352Z,98699.97
2019-04-14T05:33:00.912Z,98690.89
2019-04-14T05:35:35.836Z,98691.90
2019-04-14T05:38:10.488Z,98691.05
2019-04-14T05:40:45.058Z,98688.52
2019-04-14T05:43:30.439Z,98688.72
2019-04-14T05:45:56.655Z,98689.94
2019-04-14T05:48:33.788Z,98674.60
2019-04-14T05:51:08.595Z,98677.39
2019-04-14T05:53:43.801Z,98676.05
2019-04-14T05:56:18.631Z,98657.61
2019-04-14T05:58:55.695Z,98680.02
2019-04-14T06:01:36.544Z,98668.89
2019-04-14T06:04:13.655Z,98661.20
2019-04-14T06:06:53.661Z,98667.30
2019-04-14T06:09:28.983Z,98668.33
2019-04-14T06:12:06.088Z,98660.19
2019-04-14T06:14:43.360Z,98666.70
2019-04-14T06:17:18.616Z,98667.45
2019-04-14T06:19:54.961Z,98661.34
2019-04-14T06:22:36.370Z,98662.27
2019-04-14T06:25:11.304Z,98662.84
2019-04-14T06:27:47.955Z,98650.96
2019-04-14T06:30:22.852Z,98642.71
2019-04-14T06:33:03.670Z,98644.48
2019-04-14T06:35:38.824Z,98661.09
2019-04-14T06:38:13.677Z,98655.13
2019-04-14T06:40:48.900Z,98642.28
2019-04-14T06:43:25.240Z,98636.76
2019-04-14T06:46:01.043Z,98645.02
2019-04-14T06:48:37.483Z,98641.42
2019-04-14T06:51:13.836Z,98628.89
2019-04-14T06:53:50.335Z,98624.41
2019-04-14T06:56:26.940Z,98630.34
2019-04-14T06:59:01.377Z,98630.95
2019-04-14T07:01:38.905Z,98638.84
2019-04-14T07:04:13.508Z,98628.09
2019-04-14T07:06:53.777Z,98621.03
2019-04-14T07:09:29.158Z,98623.94
2019-04-14T07:12:03.740Z,98615.44
2019-04-14T07:14:39.058Z,98615.13
2019-04-14T07:17:13.363Z,98621.02
2019-04-14T07:20:02.018Z,98623.63
2019-04-14T07:22:29.393Z,98624.15
2019-04-14T07:25:03.211Z,98625.02
2019-04-14T07:27:38.045Z,98627.94
2019-04-14T07:30:12.096Z,98622.31
2019-04-14T07:32:48.906Z,98615.78
2019-04-14T07:35:22.580Z,98616.97
2019-04-14T07:37:58.311Z,98622.65
2019-04-14T07:40:32.185Z,98623.70
2019-04-14T07:43:11.961Z,98615.52
2019-04-14T07:45:47.296Z,98625.02
2019-04-14T07:48:24.018Z,98619.94
2019-04-14T07:50:59.900Z,98611.70
2019-04-14T07:53:33.668Z,98626.28
2019-04-14T07:56:08.268Z,98621.41
2019-04-14T07:58:42.956Z,98619.58
2019-04-14T08:01:17.181Z,98626.75
2019-04-14T08:03:51.983Z,98610.92
2019-04-14T08:06:26.231Z,98610.58
2019-04-14T08:09:00.352Z,98620.45
2019-04-14T08:11:35.341Z,98616.48
2019-04-14T08:14:09.728Z,98627.22
2019-04-14T08:16:43.780Z,98627.48
2019-04-14T08:19:18.098Z,98627.97
2019-04-14T08:21:55.115Z,98627.56
2019-04-14T08:24:31.925Z,98624.34
2019-04-14T08:27:07.784Z,98633.03
2019-04-14T08:29:41.959Z,98638.06
2019-04-14T08:32:16.040Z,98634.02
2019-04-14T08:34:51.653Z,98634.84
2019-04-14T08:37:30.390Z,98631.52
2019-04-14T08:40:06.199Z,98631.53
2019-04-14T08:42:40.927Z,98631.94
2019-04-14T08:45:15.215Z,98634.69
2019-04-14T08:47:52.566Z,98637.81
2019-04-14T08:50:38.697Z,98641.39
2019-04-14T08:53:04.205Z,98636.94
2019-04-14T08:55:38.357Z,98649.20
2019-04-14T08:58:12.495Z,98642.36
2019-04-14T09:00:46.818Z,98645.98
2019-04-14T09:03:23.312Z,98639.42
2019-04-14T09:05:57.696Z,98643.65
2019-04-14T09:08:33.391Z,98638.88
2019-04-14T09:11:09.313Z,98639.04
2019-04-14T09:13:44.071Z,98646.29
2019-04-14T09:16:20.180Z,98648.09
2019-04-14T09:19:06.887Z,98651.71
2019-04-14T09:21:31.828Z,98647.66
2019-04-14T09:24:05.919Z,98642.39
2019-04-14T09:26:40.213Z,98652.42
2019-04-14T09:29:14.451Z,98653.95
2019-04-14T09:31:48.724Z,98652.71
2019-04-14T09:34:23.068Z,98655.45
2019-04-14T09:36:57.201Z,98661.20
2019-04-14T09:39:31.677Z,98655.16
2019-04-14T09:42:06.141Z,98651.05
2019-04-14T09:44:42.299Z,98649.08
2019-04-14T09:47:16.489Z,98644.25
2019-04-14T09:49:51.762Z,98646.53
2019-04-14T09:52:25.879Z,98653.85
2019-04-14T09:55:00.289Z,98658.62
2019-04-14T09:57:35.946Z,98659.34
2019-04-14T10:03:00.621Z,98659.53
2019-04-14T10:05:35.614Z,98651.85
2019-04-14T10:08:09.928Z,98667.27
2019-04-14T10:10:45.684Z,98669.87
2019-04-14T10:13:20.451Z,98672.45
2019-04-14T10:15:55.462Z,98669.00
2019-04-14T10:18:29.352Z,98665.70
2019-04-14T10:21:03.703Z,98666.96
2019-04-14T10:23:39.400Z,98660.92
2019-04-14T10:26:13.334Z,98674.55
2019-04-14T10:28:47.563Z,98670.09
2019-04-14T10:31:21.960Z,98674.26
2019-04-14T10:33:57.014Z,98684.36
2019-04-14T10:36:35.905Z,98675.98
2019-04-14T10:39:10.316Z,98681.59
2019-04-14T10:41:43.978Z,98681.80
2019-04-14T10:44:18.533Z,98685.73
2019-04-14T10:46:59.972Z,98685.73
2019-04-14T10:49:35.288Z,98687.73
2019-04-14T10:52:10.640Z,98686.19
2019-04-14T10:54:47.100Z,98690.73
2019-04-14T10:57:21.952Z,98693.97
2019-04-14T10:59:56.963Z,98698.89
2019-04-14T11:02:32.119Z,98689.23
2019-04-14T11:05:07.751Z,98691.11
2019-04-14T11:07:44.574Z,98696.20
2019-04-14T11:10:19.121Z,98693.73
2019-04-14T11:12:54.305Z,98702.52
2019-04-14T11:18:19.301Z,98698.09
2019-04-14T11:20:53.787Z,98708.95
2019-04-14T11:23:30.533Z,98717.01
2019-04-14T11:26:05.869Z,98709.55
2019-04-14T11:28:42.623Z,98709.87
2019-04-14T11:31:17.150Z,98710.50
2019-04-14T11:33:51.748Z,98721.45
2019-04-14T11:36:29.375Z,98723.48
2019-04-14T11:39:04.273Z,98719.45
2019-04-14T11:41:39.241Z,98721.78
2019-04-14T11:44:15.305Z,98727.14
2019-04-14T11:46:51.766Z,98720.75
2019-04-14T11:49:27.748Z,98727.58
2019-04-14T11:52:04.184Z,98725.77
2019-04-14T11:54:41.443Z,98728.89
2019-04-14T11:57:16.078Z,98731.13
2019-04-14T11:59:51.028Z,98729.31
2019-04-14T12:05:17.955Z,98735.79
2019-04-14T12:07:53.142Z,98743.47
2019-04-14T12:10:28.643Z,98739.95
2019-04-14T12:13:03.675Z,98740.92
2019-04-14T12:15:42.161Z,98734.44
2019-04-14T12:18:22.506Z,98738.00
2019-04-14T12:20:58.488Z,98742.83
2019-04-14T12:23:36.511Z,98734.14
2019-04-14T12:26:13.300Z,98734.90
2019-04-14T12:29:09.602Z,98739.43
2019-04-14T12:31:46.958Z,98739.57
2019-04-14T12:34:24.506Z,98727.89
2019-04-14T12:37:04.948Z,98727.90
2019-04-14T12:39:43.332Z,98727.89
2019-04-14T12:42:19.645Z,98724.88
2019-04-14T12:44:55.228Z,98724.88
2019-04-14T12:47:39.554Z,98714.50
2019-04-14T12:50:09.802Z,98712.12
2019-04-14T12:52:47.821Z,98707.13
2019-04-14T12:55:33.467Z,98710.39
2019-04-14T12:58:11.296Z,98712.87
2019-04-14T13:00:47.626Z,98709.78
2019-04-14T13:03:24.246Z,98705.05
2019-04-14T13:06:00.213Z,98707.13
2019-04-14T13:08:39.838Z,98698.67
2019-04-14T13:11:17.533Z,98692.86
2019-04-14T13:13:54.842Z,98695.08
2019-04-14T13:16:32.162Z,98690.77
2019-04-14T13:19:09.498Z,98687.38
2019-04-14T13:21:44.837Z,98688.65
2019-04-14T13:24:22.145Z,98682.48
2019-04-14T13:26:57.507Z,98683.66
2019-04-14T13:29:33.462Z,98693.45
2019-04-14T13:32:09.947Z,98679.14
2019-04-14T13:34:45.482Z,98680.41
2019-04-14T13:37:22.581Z,98680.41
2019-04-14T13:40:00.674Z,98677.16
2019-04-14T13:42:36.033Z,98669.64
2019-04-14T13:45:16.048Z,98672.34
2019-04-14T13:47:52.018Z,98667.61
2019-04-14T13:50:29.686Z,98663.35
2019-04-14T13:53:07.530Z,98655.05
2019-04-14T13:55:43.064Z,98649.94
2019-04-14T13:58:20.364Z,98645.95
2019-04-14T14:00:56.697Z,98638.17
2019-04-14T14:03:32.942Z,98636.67
2019-04-14T14:06:08.267Z,98640.67
2019-04-14T14:08:43.511Z,98632.84
2019-04-14T14:11:19.937Z,98633.45
2019-04-14T14:13:55.104Z,98626.52
2019-04-14T14:16:32.112Z,98630.48
2019-04-14T14:19:07.297Z,98623.75
2019-04-14T14:21:42.133Z,98621.95
2019-04-14T14:24:16.347Z,98617.06
2019-04-14T14:26:50.113Z,98605.66
2019-04-14T14:29:24.428Z,98608.72
2019-04-14T14:32:03.143Z,98611.38
2019-04-14T14:34:39.566Z,98623.11
2019-04-14T14:37:14.181Z,98623.25
2019-04-14T14:39:49.599Z,98619.29
2019-04-14T14:42:23.493Z,98613.84
2019-04-14T14:44:58.555Z,98623.34
2019-04-14T14:47:33.739Z,98618.80
2019-04-14T14:50:10.129Z,98610.90
2019-04-14T14:52:44.134Z,98612.70
2019-04-14T14:55:18.002Z,98632.44
2019-04-14T14:57:51.591Z,98637.45
2019-04-14T15:00:25.354Z,98650.79
2019-04-14T15:02:58.748Z,98657.42
2019-04-14T15:05:32.713Z,98653.25
2019-04-14T15:08:06.424Z,98644.00
2019-04-14T15:10:40.079Z,98655.53
2019-04-14T15:13:15.325Z,98656.98
2019-04-14T15:15:49.348Z,98664.51
2019-04-14T15:18:23.086Z,98665.19
2019-04-14T15:20:57.879Z,98662.88
2019-04-14T15:23:31.577Z,98669.34
2019-04-14T15:26:06.558Z,98675.87
2019-04-14T15:28:40.304Z,98672.61
2019-04-14T15:31:15.575Z,98653.79
2019-04-14T15:33:49.217Z,98661.29
2019-04-14T15:36:22.923Z,98660.74
2019-04-14T15:38:57.434Z,98656.98
2019-04-14T15:41:31.108Z,98661.30
2019-04-14T15:44:04.799Z,98659.86
2019-04-14T15:46:38.712Z,98655.78
2019-04-14T15:49:12.409Z,98654.28
2019-04-14T15:51:47.670Z,98658.36
2019-04-14T15:54:21.169Z,98652.65
2019-04-14T15:56:55.006Z,98649.80
2019-04-14T15:59:29.585Z,98652.30
2019-04-14T16:02:03.512Z,98654.27
2019-04-14T16:04:37.479Z,98646.05
2019-04-14T16:07:11.389Z,98638.48
2019-04-14T16:09:46.393Z,98640.16
2019-04-14T16:12:19.919Z,98632.23
2019-04-14T16:14:53.854Z,98627.88
2019-04-14T16:17:27.190Z,98631.41
2019-04-14T16:20:01.142Z,98638.70
2019-04-14T16:22:38.843Z,98628.68
2019-04-14T16:25:12.446Z,98623.17
2019-04-14T16:27:46.364Z,98628.63
2019-04-14T16:30:20.083Z,98618.56
2019-04-14T16:32:53.504Z,98613.03
2019-04-14T16:35:27.199Z,98612.56
2019-04-14T16:38:00.794Z,98622.42
2019-04-14T16:40:34.856Z,98621.11
2019-04-14T16:43:10.024Z,98622.92
2019-04-14T16:45:43.856Z,98613.73
2019-04-14T16:48:19.139Z,98606.71
2019-04-14T16:50:53.028Z,98611.20
2019-04-14T16:53:27.239Z,98607.52
2019-04-14T16:56:00.622Z,98601.86
2019-04-14T16:58:34.993Z,98586.37
2019-04-14T17:01:09.135Z,98598.39
2019-04-14T17:03:43.270Z,98597.37
2019-04-14T17:06:17.091Z,98584.80
2019-04-14T17:08:50.759Z,98578.53
2019-04-14T17:11:24.406Z,98586.11
2019-04-14T17:13:57.859Z,98581.13
2019-04-14T17:16:31.322Z,98574.73
2019-04-14T17:19:04.898Z,98582.34
2019-04-14T17:21:38.654Z,98575.97
2019-04-14T17:24:16.726Z,98569.85
2019-04-14T17:26:47.195Z,98569.85
2019-04-14T17:29:21.777Z,98569.34
2019-04-14T17:31:55.386Z,98570.22
2019-04-14T17:34:30.616Z,98571.62
2019-04-14T17:37:05.609Z,98571.64
2019-04-14T17:39:40.873Z,98575.16
2019-04-14T17:42:14.304Z,98565.11
2019-04-14T17:44:47.946Z,98568.38
2019-04-14T17:47:21.630Z,98567.33
2019-04-14T17:49:55.277Z,98564.05
2019-04-14T17:52:28.439Z,98564.88
2019-04-14T17:55:02.036Z,98556.73
2019-04-14T17:57:35.805Z,98560.28
2019-04-14T18:00:11.406Z,98560.27
2019-04-14T18:02:45.091Z,98555.13
2019-04-14T18:05:18.625Z,98560.27
2019-04-14T18:07:52.374Z,98551.61
2019-04-14T18:10:26.184Z,98547.55
2019-04-14T18:12:59.666Z,98552.42
2019-04-14T18:15:33.368Z,98552.41
2019-04-14T18:18:08.516Z,98544.29
2019-04-14T18:20:42.132Z,98539.42
2019-04-14T18:23:15.931Z,98532.63
2019-04-14T18:25:51.414Z,98540.48
2019-04-14T18:28:24.729Z,98529.92
2019-04-14T18:30:58.264Z,98532.63
2019-04-14T18:33:32.345Z,98531.27
2019-04-14T18:36:07.606Z,98528.56
2019-04-14T18:38:41.408Z,98521.79
2019-04-14T18:41:16.989Z,98514.19
2019-04-14T18:43:50.525Z,98520.69
2019-04-14T18:46:24.499Z,98512.56
2019-04-14T18:48:58.500Z,98506.60
2019-04-14T18:51:31.897Z,98514.20
2019-04-14T18:54:05.685Z,98501.72
2019-04-14T18:56:39.509Z,98500.94
2019-04-14T18:59:13.442Z,98490.08
2019-04-14T19:01:50.127Z,98490.08
2019-04-14T19:04:23.652Z,98489.00
2019-04-14T19:06:57.228Z,98484.11
2019-04-14T19:09:30.807Z,98482.49
2019-04-14T19:12:04.581Z,98481.41
2019-04-14T19:14:38.367Z,98474.36
2019-04-14T19:17:23.712Z,98479.23
2019-04-14T19:20:01.914Z,98466.26
2019-04-14T19:22:32.277Z,98466.78
2019-04-14T19:25:08.423Z,98464.34
2019-04-14T19:27:41.630Z,98468.94
2019-04-14T19:30:21.465Z,98461.06
2019-04-14T19:32:57.303Z,98452.41
2019-04-14T19:35:30.977Z,98449.73
2019-04-14T19:38:04.662Z,98453.52
2019-04-14T19:40:45.506Z,98444.31
2019-04-14T19:43:23.884Z,98437.53
2019-04-14T19:45:56.338Z,98434.27
2019-04-14T19:48:30.844Z,98439.14
2019-04-14T19:51:04.725Z,98435.34
2019-04-14T19:53:38.202Z,98439.69
2019-04-14T19:56:13.318Z,98425.61
2019-04-14T19:58:47.022Z,98427.23
2019-04-14T20:01:20.697Z,98433.46
2019-04-14T20:03:55.503Z,98429.95
2019-04-14T20:06:29.789Z,98426.44
2019-04-14T20:09:03.160Z,98425.88
2019-04-14T20:11:36.695Z,98427.52
2019-04-14T20:14:10.218Z,98417.23
2019-04-14T20:16:43.905Z,98414.77
2019-04-14T20:19:17.394Z,98412.05
2019-04-14T20:21:51.087Z,98406.38
2019-04-14T20:24:24.967Z,98401.50
2019-04-14T20:26:58.579Z,98397.70
2019-04-14T20:29:32.152Z,98396.62
2019-04-14T20:32:05.962Z,98398.53
2019-04-14T20:34:39.486Z,98396.36
2019-04-14T20:37:13.342Z,98391.78
2019-04-14T20:39:47.080Z,98390.13
2019-04-14T20:42:20.755Z,98383.66
2019-04-14T20:44:54.310Z,98380.11
2019-04-14T20:47:28.050Z,98378.48
2019-04-14T20:50:01.693Z,98376.02
2019-04-14T20:52:35.300Z,98380.63
2019-04-14T20:55:09.854Z,98377.91
2019-04-14T20:57:43.399Z,98378.73
2019-04-14T21:00:20.553Z,98376.58
2019-04-14T21:02:52.222Z,98377.94
2019-04-14T21:05:26.269Z,98376.02
2019-04-14T21:07:59.919Z,98379.80
2019-04-14T21:10:36.962Z,98377.37
2019-04-14T21:13:10.734Z,98380.88
2019-04-14T21:15:44.430Z,98380.33
2019-04-14T21:18:17.968Z,98381.66
2019-04-14T21:20:51.660Z,98386.80
2019-04-14T21:23:25.324Z,98388.40
2019-04-14T21:26:01.320Z,98391.95
2019-04-14T21:28:35.277Z,98383.55
2019-04-14T21:31:08.957Z,98391.11
2019-04-14T21:33:42.819Z,98385.13
2019-04-14T21:36:16.652Z,98381.34
2019-04-14T21:38:50.153Z,98379.70
2019-04-14T21:41:24.110Z,98387.00
2019-04-14T21:43:59.393Z,98388.91
2019-04-14T21:46:33.100Z,98384.00
2019-04-14T21:49:06.655Z,98380.95
2019-04-14T21:51:42.248Z,98379.59
2019-04-14T21:54:16.247Z,98382.28
2019-04-14T21:56:50.206Z,98387.44
2019-04-14T21:59:24.051Z,98384.15
2019-04-14T22:01:58.060Z,98388.45
2019-04-14T22:04:31.393Z,98388.45
2019-04-14T22:07:04.851Z,98386.02
2019-04-14T22:09:38.392Z,98385.16
2019-04-14T22:12:11.966Z,98381.66
2019-04-14T22:14:45.652Z,98387.36
2019-04-14T22:17:19.355Z,98385.16
2019-04-14T22:19:53.245Z,98389.22
2019-04-14T22:22:26.859Z,98386.34
2019-04-14T22:25:01.320Z,98393.37
2019-04-14T22:27:35.288Z,98396.23
2019-04-14T22:30:10.717Z,98400.90
2019-04-14T22:32:46.617Z,98402.93
2019-04-14T22:35:20.353Z,98401.52
2019-04-14T22:37:54.330Z,98396.66
2019-04-14T22:40:28.151Z,98402.68
2019-04-14T22:43:01.389Z,98405.04
2019-04-14T22:45:35.167Z,98408.51
2019-04-14T22:48:10.153Z,98414.22
2019-04-14T22:50:43.801Z,98417.36
2019-04-14T22:53:17.711Z,98413.89
2019-04-14T22:55:53.538Z,98419.75
2019-04-14T22:58:28.436Z,98419.09
2019-04-14T23:01:02.465Z,98416.17
2019-04-14T23:03:36.437Z,98408.30
2019-04-14T23:06:10.208Z,98409.02
2019-04-14T23:08:44.035Z,98411.42
2019-04-14T23:11:17.571Z,98415.87
2019-04-14T23:13:51.092Z,98411.01
2019-04-14T23:16:26.035Z,98410.97
2019-04-14T23:18:59.826Z,98411.95
2019-04-14T23:21:33.236Z,98406.59
2019-04-14T23:24:06.645Z,98398.78
2019-04-14T23:26:51.753Z,98395.95
2019-04-14T23:29:16.145Z,98392.70
2019-04-14T23:31:49.849Z,98392.70
2019-04-14T23:34:25.526Z,98393.93
2019-04-14T23:36:59.221Z,98397.25
2019-04-14T23:39:33.138Z,98396.75
2019-04-14T23:42:06.646Z,98402.81
2019-04-14T23:44:40.373Z,98400.64
2019-04-14T23:47:13.633Z,98401.25
2019-04-14T23:49:47.650Z,98393.48
2019-04-14T23:52:21.175Z,98386.53
2019-04-14T23:54:54.836Z,98382.98
2019-04-14T23:57:28.472Z,98374.98
